Hauptseite
METAR-TAF:

METAR-TAF

Flughäfen :

Flughafen Rhodos

Rhodos, Griechenland

Breite: 36-24N, Länge: 028-05E, Höhe: 4 m

Beobachtung

Neuester Wetterbericht von vor 37 Minuten, um 11:20 UTC
Wind 5 kt aus Nord/Nordost
Temperatur 17°C
Luftfeuchtigkeit 77%
Luftdruck 1017 hPa
Sichtweite 10 km oder mehr
Aufgelockert bewölkt in der Höhe von 1800 ft

METAR: LGRP 201120Z 03005KT 9999 SCT018 17/13 Q1017 NOSIG

Zeit: 13:57 (11:57 UTC)

Prognose

Neuester Wetterbericht von vor 57 Minuten, um 11:00 UTC
Gültige Prognose vom 20 um 12 UTC bis 21 um 12 UTC
Wind 5 kt aus unterschiedlichen Richtungen
Sichtweite 10 km oder mehr
Leicht bewölkt in der Höhe von 1800 ft
Übergehend zu
vom 21 um 06 UTC bis 21 um 08 UTC
Wind 10 kt aus West

TAF: LGRP 201100Z 2012/2112 VRB05KT 9999 FEW018 BECMG 2106/2108 27010KT

Wetterbeobachtungen und Prognosen von mehr als 4000 Flughäfen (METAR und TAF Bericht).

Die verfügbaren Stationen werden durch gelbe und rote Markierungen auf der Karte dargestellt.

Führen Sie die Maus auf sie, um den Namen der Station zu sehen.

Darauf klicken, um die Beobachtung von Wetterbeobachtungen und Prognosen zu sehen.

Um die Karte zu ändern : klicken Sie auf den grünen Tasten mit einem schwarzen Kreuz Zum Vergrößern, auf den grünen Button mit einem Gedankenstrich zu verkleinern, oder auf die grünen Pfeile für benachbarte Karten.


METAR-TAF: